createdAt,value
2019-04-25T00:01:49.900Z,2.83
2019-04-25T00:04:21.550Z,3.43
2019-04-25T00:06:52.304Z,3.13
2019-04-25T00:09:23.389Z,3.00
2019-04-25T00:11:53.964Z,3.10
2019-04-25T00:14:24.608Z,2.90
2019-04-25T00:16:55.252Z,3.37
2019-04-25T00:22:24.308Z,2.80
2019-04-25T00:25:15.990Z,3.13
2019-04-25T00:27:45.877Z,3.37
2019-04-25T00:30:16.773Z,3.40
2019-04-25T00:32:47.337Z,3.53
2019-04-25T00:35:17.864Z,4.10
2019-04-25T00:37:48.433Z,4.40
2019-04-25T00:40:19.041Z,4.10
2019-04-25T00:42:50.311Z,3.60
2019-04-25T00:45:22.326Z,4.33
2019-04-25T00:47:53.029Z,4.07
2019-04-25T00:50:23.627Z,4.00
2019-04-25T00:52:54.112Z,4.50
2019-04-25T00:55:28.666Z,4.03
2019-04-25T00:58:03.363Z,4.17
2019-04-25T01:01:12.074Z,4.60
2019-04-25T01:03:44.135Z,4.17
2019-04-25T01:06:15.028Z,4.10
2019-04-25T01:08:45.807Z,4.23
2019-04-25T01:11:16.321Z,4.60
2019-04-25T01:13:46.870Z,4.53
2019-04-25T01:16:17.596Z,4.63
2019-04-25T01:18:48.761Z,4.77
2019-04-25T01:21:19.320Z,4.47
2019-04-25T01:23:49.954Z,4.70
2019-04-25T01:26:20.508Z,4.40
2019-04-25T01:28:51.865Z,5.80
2019-04-25T01:31:24.904Z,5.37
2019-04-25T01:33:55.645Z,5.60
2019-04-25T01:36:34.273Z,5.70
2019-04-25T01:39:16.387Z,5.10
2019-04-25T01:42:05.832Z,5.63
2019-04-25T01:47:20.240Z,5.93
2019-04-25T01:49:50.740Z,5.07
2019-04-25T01:52:21.304Z,5.30
2019-04-25T01:54:53.116Z,5.10
2019-04-25T01:57:24.054Z,5.17
2019-04-25T01:59:55.425Z,4.93
2019-04-25T02:02:29.238Z,4.60
2019-04-25T02:05:00.272Z,5.37
2019-04-25T02:07:30.857Z,4.80
2019-04-25T02:10:01.698Z,4.20
2019-04-25T02:12:39.419Z,4.80
2019-04-25T02:15:10.224Z,4.50
2019-04-25T02:17:40.776Z,4.40
2019-04-25T02:20:11.745Z,3.90
2019-04-25T02:22:42.285Z,4.10
2019-04-25T02:25:13.273Z,4.20
2019-04-25T02:27:44.181Z,3.70
2019-04-25T02:30:15.734Z,4.00
2019-04-25T02:32:46.360Z,3.53
2019-04-25T02:35:17.325Z,3.87
2019-04-25T02:37:47.799Z,3.73
2019-04-25T02:40:20.208Z,3.50
2019-04-25T02:42:50.765Z,3.47
2019-04-25T02:45:34.411Z,4.70
2019-04-25T02:48:44.160Z,3.97
2019-04-25T02:51:39.439Z,3.17
2019-04-25T02:54:10.126Z,3.67
2019-04-25T02:56:40.649Z,3.73
2019-04-25T02:59:11.140Z,3.77
2019-04-25T03:01:44.309Z,4.63
2019-04-25T03:06:58.308Z,3.77
2019-04-25T03:09:28.394Z,3.57
2019-04-25T03:11:59.941Z,3.80
2019-04-25T03:14:30.473Z,3.63
2019-04-25T03:17:01.935Z,4.00
2019-04-25T03:20:11.158Z,4.10
2019-04-25T03:22:39.257Z,3.77
2019-04-25T03:25:13.095Z,4.87
2019-04-25T03:27:41.992Z,4.70
2019-04-25T03:30:16.618Z,4.60
2019-04-25T03:32:45.292Z,4.40
2019-04-25T03:35:15.848Z,4.60
2019-04-25T03:37:46.396Z,4.70
2019-04-25T03:40:16.884Z,4.77
2019-04-25T03:42:47.532Z,5.63
2019-04-25T03:45:18.085Z,5.30
2019-04-25T03:47:49.624Z,5.13
2019-04-25T03:50:21.188Z,5.37
2019-04-25T03:52:51.716Z,5.17
2019-04-25T03:55:23.984Z,5.20
2019-04-25T04:00:36.772Z,5.67
2019-04-25T04:03:07.911Z,5.50
2019-04-25T04:08:20.241Z,4.97
2019-04-25T04:10:50.900Z,5.03
2019-04-25T04:13:21.463Z,4.87
2019-04-25T04:15:53.281Z,4.43
2019-04-25T04:18:30.341Z,4.60
2019-04-25T04:21:19.724Z,4.50
2019-04-25T04:24:09.610Z,4.53
2019-04-25T04:26:40.319Z,4.43
2019-04-25T04:29:10.891Z,4.03
2019-04-25T04:31:43.083Z,3.80
2019-04-25T04:34:14.684Z,3.40
2019-04-25T04:36:46.652Z,2.60
2019-04-25T04:39:18.005Z,2.77
2019-04-25T04:41:49.309Z,2.60
2019-04-25T04:44:19.795Z,2.70
2019-04-25T04:46:50.269Z,2.57
2019-04-25T04:49:20.768Z,2.00
2019-04-25T04:51:51.385Z,2.37
2019-04-25T04:54:23.130Z,2.30
2019-04-25T04:56:54.777Z,2.30
2019-04-25T04:59:25.308Z,2.10
2019-04-25T05:02:29.924Z,2.07
2019-04-25T05:05:12.020Z,1.60
2019-04-25T05:07:49.072Z,1.73
2019-04-25T05:10:20.091Z,1.83
2019-04-25T05:12:50.642Z,2.00
2019-04-25T05:15:21.148Z,2.13
2019-04-25T05:17:51.752Z,2.03
2019-04-25T05:20:22.251Z,1.93
2019-04-25T05:22:53.333Z,1.73
2019-04-25T05:25:24.902Z,1.80
2019-04-25T05:28:02.948Z,2.20
2019-04-25T05:30:34.080Z,2.83
2019-04-25T05:33:04.548Z,2.00
2019-04-25T05:41:46.429Z,1.70
2019-04-25T05:44:17.091Z,1.93
2019-04-25T05:46:47.648Z,1.80
2019-04-25T05:49:18.140Z,2.10
2019-04-25T05:51:48.624Z,2.70
2019-04-25T05:54:19.198Z,1.73
2019-04-25T05:56:49.758Z,2.00
2019-04-25T05:59:20.333Z,2.20
2019-04-25T06:04:40.152Z,2.80
2019-04-25T06:07:10.684Z,2.23
2019-04-25T06:10:00.137Z,2.30
2019-04-25T06:12:44.460Z,1.90
2019-04-25T06:15:15.040Z,2.03
2019-04-25T06:18:14.081Z,1.97
2019-04-25T06:20:44.601Z,2.33
2019-04-25T06:23:34.090Z,2.47
2019-04-25T06:26:19.003Z,3.13
2019-04-25T06:28:49.048Z,2.40
2019-04-25T06:31:10.426Z,2.60
2019-04-25T06:33:41.149Z,2.00
2019-04-25T06:36:11.705Z,2.27
2019-04-25T06:38:42.247Z,2.23
2019-04-25T06:41:13.505Z,3.37
2019-04-25T06:43:45.667Z,2.63
2019-04-25T06:46:40.893Z,1.97
2019-04-25T06:49:16.460Z,2.63
2019-04-25T06:51:51.012Z,2.27
2019-04-25T06:54:22.005Z,2.27
2019-04-25T06:56:53.760Z,2.50
2019-04-25T06:59:26.123Z,2.47
2019-04-25T07:01:57.632Z,2.60
2019-04-25T07:04:29.175Z,3.50
2019-04-25T07:07:10.663Z,3.40
2019-04-25T07:09:34.539Z,2.90
2019-04-25T07:12:05.087Z,2.70
2019-04-25T07:14:36.839Z,3.10
2019-04-25T07:17:07.576Z,2.50
2019-04-25T07:19:38.132Z,2.23
2019-04-25T07:22:08.693Z,2.20
2019-04-25T07:24:39.268Z,2.73
2019-04-25T07:27:28.808Z,2.70
2019-04-25T07:30:26.889Z,2.70
2019-04-25T07:32:53.991Z,2.40
2019-04-25T07:38:00.112Z,2.83
2019-04-25T07:40:30.649Z,2.37
2019-04-25T07:43:01.216Z,2.57
2019-04-25T07:45:33.880Z,2.73
2019-04-25T07:48:04.186Z,2.33
2019-04-25T07:50:35.416Z,2.60
2019-04-25T07:53:07.006Z,3.63
2019-04-25T07:55:38.736Z,2.53
2019-04-25T07:58:10.308Z,2.23
2019-04-25T08:00:40.873Z,2.37
2019-04-25T08:03:11.448Z,2.30
2019-04-25T08:05:41.907Z,2.30
2019-04-25T08:08:13.635Z,2.30
2019-04-25T08:10:59.314Z,2.43
2019-04-25T08:13:34.880Z,2.70
2019-04-25T08:16:06.334Z,2.07
2019-04-25T08:18:38.950Z,2.43
2019-04-25T08:21:09.633Z,2.23
2019-04-25T08:26:23.985Z,2.00
2019-04-25T08:28:57.572Z,2.20
2019-04-25T08:31:26.849Z,2.33
2019-04-25T08:33:57.371Z,2.20
2019-04-25T08:36:27.914Z,2.17
2019-04-25T08:38:58.558Z,1.90
2019-04-25T08:41:30.048Z,2.20
2019-04-25T08:44:01.450Z,2.27
2019-04-25T08:46:33.898Z,2.30
2019-04-25T08:49:19.197Z,2.00
2019-04-25T08:51:50.096Z,1.90
2019-04-25T08:54:35.444Z,1.77
2019-04-25T08:57:06.924Z,1.40
2019-04-25T08:59:52.218Z,1.80
2019-04-25T09:02:38.816Z,2.20
2019-04-25T09:05:44.381Z,2.10
2019-04-25T09:08:14.525Z,1.83
2019-04-25T09:10:45.165Z,2.10
2019-04-25T09:13:16.695Z,1.60
2019-04-25T09:15:47.286Z,1.73
2019-04-25T09:18:17.825Z,1.37
2019-04-25T09:20:48.401Z,1.57
2019-04-25T09:23:19.012Z,1.63
2019-04-25T09:25:49.604Z,1.50
2019-04-25T09:28:20.147Z,2.00
2019-04-25T09:30:50.632Z,1.80
2019-04-25T09:33:21.212Z,1.40
2019-04-25T09:35:51.796Z,1.93
2019-04-25T09:38:22.390Z,1.97
2019-04-25T09:40:54.165Z,1.80
2019-04-25T09:43:24.888Z,1.80
2019-04-25T09:46:09.428Z,1.97
2019-04-25T09:48:57.604Z,1.90
2019-04-25T09:51:33.914Z,1.97
2019-04-25T09:54:38.690Z,2.10
2019-04-25T09:57:26.521Z,1.80
2019-04-25T09:59:57.128Z,1.70
2019-04-25T10:02:28.893Z,1.70
2019-04-25T10:04:59.472Z,1.30
2019-04-25T10:07:29.997Z,1.67
2019-04-25T10:10:00.642Z,1.67
2019-04-25T10:12:31.262Z,1.40
2019-04-25T10:15:25.869Z,1.63
2019-04-25T10:17:56.432Z,1.60
2019-04-25T10:20:27.025Z,1.13
2019-04-25T10:22:57.598Z,1.30
2019-04-25T10:25:28.197Z,1.30
2019-04-25T10:27:59.016Z,1.50
2019-04-25T10:30:29.596Z,1.10
2019-04-25T10:33:00.191Z,1.00
2019-04-25T10:35:31.209Z,1.03
2019-04-25T10:38:03.230Z,1.10
2019-04-25T10:40:34.653Z,1.30
2019-04-25T10:43:05.509Z,0.80
2019-04-25T10:45:36.331Z,1.10
2019-04-25T10:48:06.945Z,0.90
2019-04-25T10:50:37.521Z,1.07
2019-04-25T10:53:08.077Z,1.20
2019-04-25T10:55:38.636Z,1.00
2019-04-25T10:58:09.268Z,1.23
2019-04-25T11:00:42.230Z,1.40
2019-04-25T11:03:33.704Z,1.50
2019-04-25T11:06:04.588Z,1.10
2019-04-25T11:08:35.313Z,1.70
2019-04-25T11:11:06.104Z,1.33
2019-04-25T11:13:37.005Z,1.27
2019-04-25T11:16:08.364Z,1.43
2019-04-25T11:18:44.165Z,1.53
2019-04-25T11:21:14.105Z,1.60
2019-04-25T11:23:47.668Z,1.60
2019-04-25T11:26:16.852Z,1.40
2019-04-25T11:28:47.433Z,1.37
2019-04-25T11:31:36.941Z,1.70
2019-04-25T11:34:08.475Z,1.40
2019-04-25T11:36:39.078Z,1.30
2019-04-25T11:39:34.514Z,1.20
2019-04-25T11:42:08.813Z,0.93
2019-04-25T11:44:39.427Z,0.80
2019-04-25T11:47:11.162Z,1.00
2019-04-25T11:49:42.285Z,1.23
2019-04-25T11:52:21.393Z,1.30
2019-04-25T11:54:46.878Z,1.50
2019-04-25T11:57:17.832Z,1.43
2019-04-25T11:59:50.457Z,1.20
2019-04-25T12:02:21.640Z,1.47
2019-04-25T12:04:54.154Z,1.43
2019-04-25T12:07:24.557Z,1.50
2019-04-25T12:09:55.656Z,1.20
2019-04-25T12:12:26.213Z,1.60
2019-04-25T12:14:56.806Z,1.20
2019-04-25T12:17:27.333Z,1.40
2019-04-25T12:19:57.885Z,1.00
2019-04-25T12:22:31.438Z,1.13
2019-04-25T12:27:51.407Z,1.40
2019-04-25T12:30:34.768Z,1.70
2019-04-25T12:32:55.156Z,1.30
2019-04-25T12:35:25.828Z,1.30
2019-04-25T12:37:56.499Z,1.30
2019-04-25T12:40:27.057Z,1.47
2019-04-25T12:42:57.588Z,1.73
2019-04-25T12:45:39.938Z,1.50
2019-04-25T12:48:10.677Z,1.27
2019-04-25T12:50:41.249Z,1.50
2019-04-25T12:53:14.764Z,1.00
2019-04-25T12:55:45.334Z,0.93
2019-04-25T12:58:15.844Z,1.00
2019-04-25T13:00:49.466Z,1.00
2019-04-25T13:03:18.532Z,1.00
2019-04-25T13:05:49.108Z,0.90
2019-04-25T13:08:19.676Z,0.90
2019-04-25T13:10:50.179Z,0.97
2019-04-25T13:13:20.660Z,1.07
2019-04-25T13:15:51.300Z,1.03
2019-04-25T13:18:21.864Z,1.00
2019-04-25T13:20:55.037Z,0.87
2019-04-25T13:23:24.544Z,0.90
2019-04-25T13:25:55.844Z,1.03
2019-04-25T13:28:45.535Z,0.80
2019-04-25T13:31:40.908Z,0.70
2019-04-25T13:34:18.702Z,0.60
2019-04-25T13:36:49.317Z,0.70
2019-04-25T13:39:21.388Z,0.87
2019-04-25T13:41:51.984Z,0.60
2019-04-25T13:44:24.338Z,0.70
2019-04-25T13:46:54.992Z,0.53
2019-04-25T13:49:25.574Z,0.90
2019-04-25T13:51:56.128Z,1.00
2019-04-25T13:54:26.798Z,0.70
2019-04-25T13:56:57.317Z,0.93
2019-04-25T13:59:28.308Z,0.83
2019-04-25T14:02:00.294Z,0.83
2019-04-25T14:04:31.454Z,0.73
2019-04-25T14:07:02.049Z,0.93
2019-04-25T14:09:34.563Z,1.33
2019-04-25T14:12:06.624Z,1.10
2019-04-25T14:14:37.236Z,1.13
2019-04-25T14:17:31.740Z,1.20
2019-04-25T14:20:24.873Z,1.10
2019-04-25T14:22:55.455Z,1.70
2019-04-25T14:25:27.321Z,1.20
2019-04-25T14:27:58.297Z,1.30
2019-04-25T14:30:32.132Z,1.00
2019-04-25T14:33:03.655Z,1.20
2019-04-25T14:38:26.260Z,1.10
2019-04-25T14:40:56.829Z,1.17
2019-04-25T14:43:27.489Z,1.40
2019-04-25T14:45:58.977Z,1.33
2019-04-25T14:48:29.514Z,1.20
2019-04-25T14:51:00.029Z,0.73
2019-04-25T14:53:32.312Z,0.90
2019-04-25T14:56:22.546Z,0.73
2019-04-25T14:58:53.184Z,1.07
2019-04-25T15:01:26.082Z,1.63
2019-04-25T15:03:56.728Z,0.90
2019-04-25T15:06:27.691Z,0.80
2019-04-25T15:08:58.240Z,0.97
2019-04-25T15:11:29.097Z,0.70
2019-04-25T15:13:59.589Z,1.00
2019-04-25T15:16:30.085Z,0.93
2019-04-25T15:19:00.631Z,2.00
2019-04-25T15:21:31.887Z,1.00
2019-04-25T15:24:03.481Z,1.23
2019-04-25T15:26:34.028Z,1.10
2019-04-25T15:29:04.582Z,1.23
2019-04-25T15:31:35.118Z,0.87
2019-04-25T15:34:05.700Z,1.10
2019-04-25T15:36:48.721Z,0.97
2019-04-25T15:39:36.837Z,0.97
2019-04-25T15:42:27.349Z,1.07
2019-04-25T15:45:15.295Z,0.97
2019-04-25T15:47:46.000Z,0.93
2019-04-25T15:50:16.497Z,1.37
2019-04-25T15:52:47.073Z,0.87
2019-04-25T15:55:18.337Z,0.80
2019-04-25T15:57:48.910Z,1.00
2019-04-25T16:00:23.303Z,1.10
2019-04-25T16:02:53.892Z,0.83
2019-04-25T16:05:26.447Z,0.93
2019-04-25T16:07:56.953Z,1.33
2019-04-25T16:10:28.331Z,1.40
2019-04-25T16:12:58.982Z,1.10
2019-04-25T16:15:29.543Z,0.83
2019-04-25T16:18:00.122Z,1.13
2019-04-25T16:20:31.451Z,1.27
2019-04-25T16:25:51.092Z,1.10
2019-04-25T16:28:21.665Z,1.30
2019-04-25T16:30:52.236Z,1.10
2019-04-25T16:33:22.891Z,1.30
2019-04-25T16:35:53.424Z,1.60
2019-04-25T16:38:24.257Z,1.13
2019-04-25T16:40:54.949Z,1.50
2019-04-25T16:43:28.598Z,1.20
2019-04-25T16:46:00.159Z,1.33
2019-04-25T16:48:31.222Z,1.40
2019-04-25T16:51:01.871Z,1.20
2019-04-25T16:53:32.652Z,1.00
2019-04-25T16:56:03.125Z,0.90
2019-04-25T16:58:33.796Z,1.27
2019-04-25T17:01:09.346Z,1.03
2019-04-25T17:03:41.136Z,1.10
2019-04-25T17:06:11.994Z,1.10
2019-04-25T17:08:42.572Z,1.30
2019-04-25T17:11:13.057Z,1.33
2019-04-25T17:13:50.100Z,1.50
2019-04-25T17:16:34.779Z,0.93
2019-04-25T17:19:08.588Z,1.20
2019-04-25T17:24:21.519Z,1.27
2019-04-25T17:26:52.621Z,1.20
2019-04-25T17:29:23.233Z,1.27
2019-04-25T17:32:18.803Z,1.20
2019-04-25T17:35:02.833Z,0.97
2019-04-25T17:37:38.821Z,1.10
2019-04-25T17:40:13.809Z,1.10
2019-04-25T17:42:44.420Z,1.00
2019-04-25T17:45:19.281Z,1.30
2019-04-25T17:47:54.603Z,1.20
2019-04-25T17:50:22.157Z,1.27
2019-04-25T17:52:52.771Z,1.30
2019-04-25T17:55:23.321Z,1.40
2019-04-25T17:57:53.931Z,1.17
2019-04-25T18:00:29.233Z,1.23
2019-04-25T18:02:59.867Z,1.27
2019-04-25T18:05:30.453Z,1.20
2019-04-25T18:08:01.170Z,0.97
2019-04-25T18:10:31.946Z,1.40
2019-04-25T18:13:03.053Z,1.37
2019-04-25T18:15:39.776Z,1.20
2019-04-25T18:18:17.041Z,1.20
2019-04-25T18:20:47.637Z,1.23
2019-04-25T18:23:35.171Z,1.30
2019-04-25T18:26:15.145Z,1.23
2019-04-25T18:28:48.501Z,2.03
2019-04-25T18:31:19.064Z,1.00
2019-04-25T18:33:51.921Z,1.47
2019-04-25T18:36:41.382Z,1.30
2019-04-25T18:39:28.752Z,1.27
2019-04-25T18:42:07.994Z,1.67
2019-04-25T18:44:37.869Z,1.33
2019-04-25T18:47:08.432Z,1.30
2019-04-25T18:49:40.448Z,1.10
2019-04-25T18:52:16.396Z,1.10
2019-04-25T18:54:59.718Z,1.43
2019-04-25T18:57:34.252Z,1.33
2019-04-25T19:00:39.316Z,1.30
2019-04-25T19:03:23.379Z,1.27
2019-04-25T19:05:53.696Z,1.90
2019-04-25T19:08:24.270Z,1.50
2019-04-25T19:10:55.012Z,1.47
2019-04-25T19:13:25.672Z,1.70
2019-04-25T19:15:56.622Z,1.20
2019-04-25T19:18:27.158Z,1.43
2019-04-25T19:20:57.728Z,1.83
2019-04-25T19:23:29.021Z,1.90
2019-04-25T19:26:00.730Z,1.43
2019-04-25T19:28:31.308Z,1.50
2019-04-25T19:31:01.865Z,1.60
2019-04-25T19:33:35.896Z,1.40
2019-04-25T19:36:04.828Z,1.63
2019-04-25T19:38:35.393Z,1.40
2019-04-25T19:41:12.064Z,1.30
2019-04-25T19:44:01.556Z,1.80
2019-04-25T19:46:42.914Z,1.83
2019-04-25T19:49:13.606Z,1.30
2019-04-25T19:51:45.086Z,1.73
2019-04-25T19:54:15.751Z,1.70
2019-04-25T19:56:46.274Z,1.80
2019-04-25T19:59:17.010Z,2.13
2019-04-25T20:01:48.211Z,1.60
2019-04-25T20:04:31.769Z,1.80
2019-04-25T20:07:17.434Z,2.07
2019-04-25T20:10:06.312Z,1.67
2019-04-25T20:12:44.052Z,1.90
2019-04-25T20:15:15.160Z,1.50
2019-04-25T20:17:45.991Z,1.50
2019-04-25T20:20:16.739Z,2.00
2019-04-25T20:22:48.154Z,2.13
2019-04-25T20:25:18.812Z,2.17
2019-04-25T20:30:38.412Z,1.80
2019-04-25T20:33:10.068Z,1.47
2019-04-25T20:35:40.724Z,2.57
2019-04-25T20:38:11.564Z,2.67
2019-04-25T20:40:42.209Z,1.80
2019-04-25T20:43:12.778Z,2.00
2019-04-25T20:45:43.293Z,1.80
2019-04-25T20:48:13.869Z,1.77
2019-04-25T20:50:44.483Z,2.00
2019-04-25T20:53:15.060Z,1.93
2019-04-25T20:55:46.464Z,2.10
2019-04-25T20:58:17.987Z,2.20
2019-04-25T21:00:51.718Z,1.87
2019-04-25T21:03:22.226Z,2.10
2019-04-25T21:05:55.155Z,2.33
2019-04-25T21:08:25.639Z,2.03
2019-04-25T21:10:56.200Z,1.93
2019-04-25T21:13:35.516Z,1.80
2019-04-25T21:16:27.804Z,2.43
2019-04-25T21:19:08.735Z,1.90
2019-04-25T21:21:39.400Z,2.43
2019-04-25T21:24:09.993Z,2.07
2019-04-25T21:26:40.553Z,1.87
2019-04-25T21:29:11.134Z,1.83
2019-04-25T21:31:41.866Z,2.30
2019-04-25T21:34:12.424Z,2.50
2019-04-25T21:36:44.632Z,2.40
2019-04-25T21:39:23.389Z,2.33
2019-04-25T21:42:00.052Z,2.03
2019-04-25T21:44:31.042Z,2.77
2019-04-25T21:47:01.626Z,2.20
2019-04-25T21:49:32.436Z,2.17
2019-04-25T21:52:03.329Z,2.30
2019-04-25T21:54:34.278Z,2.20
2019-04-25T21:57:05.243Z,2.10
2019-04-25T21:59:35.828Z,2.60
2019-04-25T22:02:06.779Z,2.30
2019-04-25T22:04:39.406Z,1.90
2019-04-25T22:07:10.105Z,2.27
2019-04-25T22:09:41.000Z,2.23
2019-04-25T22:12:12.192Z,2.17
2019-04-25T22:14:42.907Z,2.27
2019-04-25T22:20:02.548Z,2.77
2019-04-25T22:22:34.268Z,2.30
2019-04-25T22:25:05.045Z,2.33
2019-04-25T22:27:36.918Z,2.70
2019-04-25T22:30:09.557Z,2.30
2019-04-25T22:32:50.693Z,2.73
2019-04-25T22:35:34.941Z,2.67
2019-04-25T22:38:06.374Z,2.83
2019-04-25T22:40:36.976Z,3.43
2019-04-25T22:43:08.044Z,3.40
2019-04-25T22:45:38.907Z,3.47
2019-04-25T22:48:09.504Z,3.10
2019-04-25T22:50:40.272Z,3.70
2019-04-25T22:53:21.561Z,3.10
2019-04-25T22:55:43.004Z,3.10
2019-04-25T22:58:13.577Z,3.00
2019-04-25T23:00:44.197Z,3.30
2019-04-25T23:03:22.909Z,3.50
2019-04-25T23:05:56.236Z,3.60
2019-04-25T23:08:27.035Z,3.43
2019-04-25T23:10:57.623Z,3.47
2019-04-25T23:13:28.121Z,3.43
2019-04-25T23:15:58.936Z,3.57
2019-04-25T23:18:29.712Z,3.50
2019-04-25T23:21:00.272Z,4.17
2019-04-25T23:26:16.099Z,3.53
2019-04-25T23:28:47.029Z,3.63
2019-04-25T23:31:24.607Z,3.87
2019-04-25T23:33:55.521Z,3.67
2019-04-25T23:36:26.063Z,4.03
2019-04-25T23:38:56.624Z,4.40
2019-04-25T23:41:27.403Z,4.03
2019-04-25T23:43:58.010Z,4.40
2019-04-25T23:46:28.747Z,4.43
2019-04-25T23:48:59.240Z,4.37
2019-04-25T23:51:29.841Z,3.47
2019-04-25T23:54:00.728Z,3.57
2019-04-25T23:56:32.194Z,3.50
2019-04-25T23:59:02.987Z,3.10
